sensor_id;sensor_type;location;lat;lon;timestamp;temperature;humidity
43561;DHT22;32305;46.410;17.394;2023-12-07T00:00:02;21.70;35.10
43561;DHT22;32305;46.410;17.394;2023-12-07T00:02:29;21.70;35.10
43561;DHT22;32305;46.410;17.394;2023-12-07T00:04:56;21.70;35.10
43561;DHT22;32305;46.410;17.394;2023-12-07T00:07:23;21.60;35.10
43561;DHT22;32305;46.410;17.394;2023-12-07T00:09:50;21.60;35.00
43561;DHT22;32305;46.410;17.394;2023-12-07T00:12:17;21.60;35.10
43561;DHT22;32305;46.410;17.394;2023-12-07T00:14:44;21.60;35.00
43561;DHT22;32305;46.410;17.394;2023-12-07T00:17:11;21.60;35.00
43561;DHT22;32305;46.410;17.394;2023-12-07T00:19:38;21.60;35.00
43561;DHT22;32305;46.410;17.394;2023-12-07T00:22:05;21.60;35.00
43561;DHT22;32305;46.410;17.394;2023-12-07T00:24:32;21.60;35.00
43561;DHT22;32305;46.410;17.394;2023-12-07T00:26:59;21.60;35.00
43561;DHT22;32305;46.410;17.394;2023-12-07T00:29:26;21.60;35.00
43561;DHT22;32305;46.410;17.394;2023-12-07T00:31:53;21.60;35.00
43561;DHT22;32305;46.410;17.394;2023-12-07T00:34:20;21.60;35.00
43561;DHT22;32305;46.410;17.394;2023-12-07T00:36:47;21.60;35.00
43561;DHT22;32305;46.410;17.394;2023-12-07T00:39:14;21.60;35.00
43561;DHT22;32305;46.410;17.394;2023-12-07T00:41:41;21.50;35.00
43561;DHT22;32305;46.410;17.394;2023-12-07T00:44:08;21.60;35.00
43561;DHT22;32305;46.410;17.394;2023-12-07T00:46:35;21.60;35.00
43561;DHT22;32305;46.410;17.394;2023-12-07T00:49:02;21.60;35.00
43561;DHT22;32305;46.410;17.394;2023-12-07T00:51:29;21.60;35.00
43561;DHT22;32305;46.410;17.394;2023-12-07T00:53:56;21.60;35.00
43561;DHT22;32305;46.410;17.394;2023-12-07T00:56:23;21.60;35.00
43561;DHT22;32305;46.410;17.394;2023-12-07T00:58:50;21.60;35.00
43561;DHT22;32305;46.410;17.394;2023-12-07T01:01:17;21.50;34.90
43561;DHT22;32305;46.410;17.394;2023-12-07T01:03:44;21.60;34.90
43561;DHT22;32305;46.410;17.394;2023-12-07T01:06:11;21.60;34.90
43561;DHT22;32305;46.410;17.394;2023-12-07T01:08:38;21.50;34.90
43561;DHT22;32305;46.410;17.394;2023-12-07T01:11:05;21.60;34.90
43561;DHT22;32305;46.410;17.394;2023-12-07T01:13:32;21.50;34.80
43561;DHT22;32305;46.410;17.394;2023-12-07T01:15:59;21.60;34.90
43561;DHT22;32305;46.410;17.394;2023-12-07T01:18:26;21.60;34.90
43561;DHT22;32305;46.410;17.394;2023-12-07T01:20:54;21.60;34.80
43561;DHT22;32305;46.410;17.394;2023-12-07T01:23:21;21.50;34.80
43561;DHT22;32305;46.410;17.394;2023-12-07T01:25:48;21.50;34.80
43561;DHT22;32305;46.410;17.394;2023-12-07T01:28:15;21.50;34.80
43561;DHT22;32305;46.410;17.394;2023-12-07T01:30:42;21.50;34.80
43561;DHT22;32305;46.410;17.394;2023-12-07T01:33:09;21.50;34.80
43561;DHT22;32305;46.410;17.394;2023-12-07T01:35:36;21.50;34.80
43561;DHT22;32305;46.410;17.394;2023-12-07T01:38:03;21.50;34.80
43561;DHT22;32305;46.410;17.394;2023-12-07T01:40:30;21.50;34.80
43561;DHT22;32305;46.410;17.394;2023-12-07T01:42:57;21.50;34.80
43561;DHT22;32305;46.410;17.394;2023-12-07T01:45:24;21.50;34.80
43561;DHT22;32305;46.410;17.394;2023-12-07T01:47:54;21.50;34.80
43561;DHT22;32305;46.410;17.394;2023-12-07T01:50:22;21.50;34.80
43561;DHT22;32305;46.410;17.394;2023-12-07T01:52:55;21.40;34.70
43561;DHT22;32305;46.410;17.394;2023-12-07T01:55:23;21.50;34.80
43561;DHT22;32305;46.410;17.394;2023-12-07T01:57:51;21.50;34.80
43561;DHT22;32305;46.410;17.394;2023-12-07T02:00:18;21.50;34.80
43561;DHT22;32305;46.410;17.394;2023-12-07T02:02:46;21.40;34.70
43561;DHT22;32305;46.410;17.394;2023-12-07T02:05:13;21.50;34.80
43561;DHT22;32305;46.410;17.394;2023-12-07T02:07:41;21.40;34.70
43561;DHT22;32305;46.410;17.394;2023-12-07T02:10:09;21.40;34.70
43561;DHT22;32305;46.410;17.394;2023-12-07T02:12:36;21.40;34.70
43561;DHT22;32305;46.410;17.394;2023-12-07T02:15:03;21.40;34.70
43561;DHT22;32305;46.410;17.394;2023-12-07T02:17:34;21.40;34.70
43561;DHT22;32305;46.410;17.394;2023-12-07T02:20:06;21.40;34.70
43561;DHT22;32305;46.410;17.394;2023-12-07T02:22:52;21.50;34.80
43561;DHT22;32305;46.410;17.394;2023-12-07T02:25:21;21.50;34.70
43561;DHT22;32305;46.410;17.394;2023-12-07T02:27:50;21.50;34.70
43561;DHT22;32305;46.410;17.394;2023-12-07T02:30:17;21.50;34.70
43561;DHT22;32305;46.410;17.394;2023-12-07T02:32:44;21.50;34.60
43561;DHT22;32305;46.410;17.394;2023-12-07T02:35:12;21.50;34.60
43561;DHT22;32305;46.410;17.394;2023-12-07T02:37:46;21.50;34.60
43561;DHT22;32305;46.410;17.394;2023-12-07T02:40:16;21.50;34.60
43561;DHT22;32305;46.410;17.394;2023-12-07T02:42:44;21.40;34.60
43561;DHT22;32305;46.410;17.394;2023-12-07T02:45:12;21.40;34.50
43561;DHT22;32305;46.410;17.394;2023-12-07T02:47:39;21.40;34.60
43561;DHT22;32305;46.410;17.394;2023-12-07T02:50:06;21.40;34.60
43561;DHT22;32305;46.410;17.394;2023-12-07T02:52:34;21.40;34.60
43561;DHT22;32305;46.410;17.394;2023-12-07T02:55:01;21.40;34.60
43561;DHT22;32305;46.410;17.394;2023-12-07T02:57:29;21.40;34.60
43561;DHT22;32305;46.410;17.394;2023-12-07T02:59:56;21.40;34.60
43561;DHT22;32305;46.410;17.394;2023-12-07T03:02:23;21.40;34.60
43561;DHT22;32305;46.410;17.394;2023-12-07T03:04:51;21.40;34.60
43561;DHT22;32305;46.410;17.394;2023-12-07T03:07:18;21.40;34.60
43561;DHT22;32305;46.410;17.394;2023-12-07T03:09:45;21.40;34.60
43561;DHT22;32305;46.410;17.394;2023-12-07T03:12:12;21.40;34.60
43561;DHT22;32305;46.410;17.394;2023-12-07T03:14:39;21.40;34.60
43561;DHT22;32305;46.410;17.394;2023-12-07T03:17:06;21.40;34.60
43561;DHT22;32305;46.410;17.394;2023-12-07T03:19:37;21.40;34.60
43561;DHT22;32305;46.410;17.394;2023-12-07T03:22:04;21.40;34.60
43561;DHT22;32305;46.410;17.394;2023-12-07T03:24:36;21.40;34.60
43561;DHT22;32305;46.410;17.394;2023-12-07T03:27:04;21.40;34.60
43561;DHT22;32305;46.410;17.394;2023-12-07T03:29:31;21.40;34.60
43561;DHT22;32305;46.410;17.394;2023-12-07T03:31:58;21.40;34.60
43561;DHT22;32305;46.410;17.394;2023-12-07T03:34:25;21.30;34.60
43561;DHT22;32305;46.410;17.394;2023-12-07T03:36:52;21.30;34.60
43561;DHT22;32305;46.410;17.394;2023-12-07T03:39:19;21.40;34.60
43561;DHT22;32305;46.410;17.394;2023-12-07T03:41:49;21.30;34.50
43561;DHT22;32305;46.410;17.394;2023-12-07T03:44:16;21.30;34.60
43561;DHT22;32305;46.410;17.394;2023-12-07T03:46:43;21.30;34.60
43561;DHT22;32305;46.410;17.394;2023-12-07T03:49:10;21.30;34.60
43561;DHT22;32305;46.410;17.394;2023-12-07T03:51:37;21.30;34.60
43561;DHT22;32305;46.410;17.394;2023-12-07T03:54:04;21.30;34.60
43561;DHT22;32305;46.410;17.394;2023-12-07T03:56:32;21.30;34.60
43561;DHT22;32305;46.410;17.394;2023-12-07T03:58:59;21.30;34.50
43561;DHT22;32305;46.410;17.394;2023-12-07T04:01:27;21.40;34.60
43561;DHT22;32305;46.410;17.394;2023-12-07T04:03:55;21.30;34.50
43561;DHT22;32305;46.410;17.394;2023-12-07T04:06:22;21.40;34.50
43561;DHT22;32305;46.410;17.394;2023-12-07T04:08:50;21.40;34.50
43561;DHT22;32305;46.410;17.394;2023-12-07T04:11:17;21.40;34.50
43561;DHT22;32305;46.410;17.394;2023-12-07T04:13:44;21.40;34.50
43561;DHT22;32305;46.410;17.394;2023-12-07T04:16:11;21.40;34.50
43561;DHT22;32305;46.410;17.394;2023-12-07T04:18:38;21.30;34.40
43561;DHT22;32305;46.410;17.394;2023-12-07T04:21:06;21.30;34.40
43561;DHT22;32305;46.410;17.394;2023-12-07T04:23:33;21.30;34.40
43561;DHT22;32305;46.410;17.394;2023-12-07T04:26:00;21.30;34.40
43561;DHT22;32305;46.410;17.394;2023-12-07T04:28:27;21.30;34.50
43561;DHT22;32305;46.410;17.394;2023-12-07T04:30:54;21.30;34.40
43561;DHT22;32305;46.410;17.394;2023-12-07T04:33:21;21.30;34.40
43561;DHT22;32305;46.410;17.394;2023-12-07T04:35:48;21.30;34.40
43561;DHT22;32305;46.410;17.394;2023-12-07T04:38:15;21.30;35.00
43561;DHT22;32305;46.410;17.394;2023-12-07T04:40:42;21.30;34.40
43561;DHT22;32305;46.410;17.394;2023-12-07T04:43:09;21.30;34.00
43561;DHT22;32305;46.410;17.394;2023-12-07T04:45:36;21.30;34.30
43561;DHT22;32305;46.410;17.394;2023-12-07T04:48:03;21.30;34.30
43561;DHT22;32305;46.410;17.394;2023-12-07T04:50:31;21.30;34.30
43561;DHT22;32305;46.410;17.394;2023-12-07T04:52:58;21.30;34.20
43561;DHT22;32305;46.410;17.394;2023-12-07T04:55:25;21.40;34.30
43561;DHT22;32305;46.410;17.394;2023-12-07T04:57:53;21.40;34.20
43561;DHT22;32305;46.410;17.394;2023-12-07T05:00:20;21.40;34.20
43561;DHT22;32305;46.410;17.394;2023-12-07T05:02:48;21.40;34.10
43561;DHT22;32305;46.410;17.394;2023-12-07T05:05:15;21.40;34.10
43561;DHT22;32305;46.410;17.394;2023-12-07T05:07:42;21.50;34.10
43561;DHT22;32305;46.410;17.394;2023-12-07T05:10:09;21.50;34.10
43561;DHT22;32305;46.410;17.394;2023-12-07T05:12:37;21.50;34.10
43561;DHT22;32305;46.410;17.394;2023-12-07T05:15:04;21.60;34.00
43561;DHT22;32305;46.410;17.394;2023-12-07T05:17:32;21.60;34.00
43561;DHT22;32305;46.410;17.394;2023-12-07T05:20:00;21.70;33.90
43561;DHT22;32305;46.410;17.394;2023-12-07T05:22:27;21.70;33.80
43561;DHT22;32305;46.410;17.394;2023-12-07T05:24:55;21.80;33.80
43561;DHT22;32305;46.410;17.394;2023-12-07T05:27:22;21.90;33.70
43561;DHT22;32305;46.410;17.394;2023-12-07T05:29:49;21.90;33.70
43561;DHT22;32305;46.410;17.394;2023-12-07T05:32:16;22.00;33.60
43561;DHT22;32305;46.410;17.394;2023-12-07T05:34:43;22.00;33.50
43561;DHT22;32305;46.410;17.394;2023-12-07T05:37:10;22.10;33.50
43561;DHT22;32305;46.410;17.394;2023-12-07T05:39:37;22.10;33.40
43561;DHT22;32305;46.410;17.394;2023-12-07T05:42:05;22.20;33.40
43561;DHT22;32305;46.410;17.394;2023-12-07T05:44:32;22.20;33.30
43561;DHT22;32305;46.410;17.394;2023-12-07T05:46:59;22.20;33.20
43561;DHT22;32305;46.410;17.394;2023-12-07T05:49:26;22.30;33.20
43561;DHT22;32305;46.410;17.394;2023-12-07T05:51:53;22.40;33.10
43561;DHT22;32305;46.410;17.394;2023-12-07T05:54:20;22.30;33.00
43561;DHT22;32305;46.410;17.394;2023-12-07T05:56:49;22.40;33.00
43561;DHT22;32305;46.410;17.394;2023-12-07T05:59:16;22.40;32.90
43561;DHT22;32305;46.410;17.394;2023-12-07T06:01:43;22.50;33.00
43561;DHT22;32305;46.410;17.394;2023-12-07T06:04:10;22.50;32.90
43561;DHT22;32305;46.410;17.394;2023-12-07T06:06:39;22.50;32.90
43561;DHT22;32305;46.410;17.394;2023-12-07T06:09:06;22.50;32.80
43561;DHT22;32305;46.410;17.394;2023-12-07T06:11:35;22.60;32.80
43561;DHT22;32305;46.410;17.394;2023-12-07T06:14:02;22.60;32.70
43561;DHT22;32305;46.410;17.394;2023-12-07T06:16:30;22.60;32.70
43561;DHT22;32305;46.410;17.394;2023-12-07T06:18:57;22.60;32.80
43561;DHT22;32305;46.410;17.394;2023-12-07T06:21:24;22.70;33.60
43561;DHT22;32305;46.410;17.394;2023-12-07T06:23:53;22.70;33.00
43561;DHT22;32305;46.410;17.394;2023-12-07T06:26:20;22.80;33.10
43561;DHT22;32305;46.410;17.394;2023-12-07T06:28:48;22.80;33.00
43561;DHT22;32305;46.410;17.394;2023-12-07T06:31:15;22.80;33.50
43561;DHT22;32305;46.410;17.394;2023-12-07T06:33:47;22.90;33.10
43561;DHT22;32305;46.410;17.394;2023-12-07T06:36:20;22.90;33.00
43561;DHT22;32305;46.410;17.394;2023-12-07T06:38:48;23.00;33.30
43561;DHT22;32305;46.410;17.394;2023-12-07T06:41:15;23.00;33.40
43561;DHT22;32305;46.410;17.394;2023-12-07T06:43:42;23.10;33.50
43561;DHT22;32305;46.410;17.394;2023-12-07T06:46:12;23.10;33.70
43561;DHT22;32305;46.410;17.394;2023-12-07T06:48:40;23.20;34.10
43561;DHT22;32305;46.410;17.394;2023-12-07T06:51:08;23.10;33.60
43561;DHT22;32305;46.410;17.394;2023-12-07T06:53:35;23.10;33.80
43561;DHT22;32305;46.410;17.394;2023-12-07T06:56:02;23.20;33.80
43561;DHT22;32305;46.410;17.394;2023-12-07T06:58:29;23.20;33.70
43561;DHT22;32305;46.410;17.394;2023-12-07T07:00:56;23.20;33.60
43561;DHT22;32305;46.410;17.394;2023-12-07T07:03:24;23.30;33.70
43561;DHT22;32305;46.410;17.394;2023-12-07T07:05:51;23.30;33.80
43561;DHT22;32305;46.410;17.394;2023-12-07T07:08:19;23.30;33.70
43561;DHT22;32305;46.410;17.394;2023-12-07T07:10:46;23.40;33.70
43561;DHT22;32305;46.410;17.394;2023-12-07T07:13:16;23.40;33.60
43561;DHT22;32305;46.410;17.394;2023-12-07T07:15:44;23.40;33.50
43561;DHT22;32305;46.410;17.394;2023-12-07T07:18:11;23.50;33.60
43561;DHT22;32305;46.410;17.394;2023-12-07T07:20:39;23.50;33.60
43561;DHT22;32305;46.410;17.394;2023-12-07T07:23:06;23.50;33.50
43561;DHT22;32305;46.410;17.394;2023-12-07T07:25:34;23.50;33.40
43561;DHT22;32305;46.410;17.394;2023-12-07T07:28:02;23.60;33.40
43561;DHT22;32305;46.410;17.394;2023-12-07T07:30:30;23.60;33.40
43561;DHT22;32305;46.410;17.394;2023-12-07T07:32:57;23.60;33.50
43561;DHT22;32305;46.410;17.394;2023-12-07T07:35:24;23.70;33.50
43561;DHT22;32305;46.410;17.394;2023-12-07T07:37:54;23.70;33.40
43561;DHT22;32305;46.410;17.394;2023-12-07T07:40:21;23.70;33.30
43561;DHT22;32305;46.410;17.394;2023-12-07T07:42:48;23.70;33.30
43561;DHT22;32305;46.410;17.394;2023-12-07T07:45:15;23.80;33.30
43561;DHT22;32305;46.410;17.394;2023-12-07T07:47:43;23.80;33.20
43561;DHT22;32305;46.410;17.394;2023-12-07T07:50:10;23.80;33.20
43561;DHT22;32305;46.410;17.394;2023-12-07T07:52:38;23.90;33.20
43561;DHT22;32305;46.410;17.394;2023-12-07T07:55:07;23.90;33.10
43561;DHT22;32305;46.410;17.394;2023-12-07T07:57:34;23.90;33.10
43561;DHT22;32305;46.410;17.394;2023-12-07T08:00:01;24.00;33.10
43561;DHT22;32305;46.410;17.394;2023-12-07T08:02:30;24.00;33.00
43561;DHT22;32305;46.410;17.394;2023-12-07T08:04:57;24.00;33.00
43561;DHT22;32305;46.410;17.394;2023-12-07T08:07:25;24.10;33.00
43561;DHT22;32305;46.410;17.394;2023-12-07T08:09:52;24.10;33.00
43561;DHT22;32305;46.410;17.394;2023-12-07T08:12:20;24.10;32.90
43561;DHT22;32305;46.410;17.394;2023-12-07T08:14:49;24.10;33.50
43561;DHT22;32305;46.410;17.394;2023-12-07T08:17:16;24.10;33.10
43561;DHT22;32305;46.410;17.394;2023-12-07T08:19:45;24.10;33.10
43561;DHT22;32305;46.410;17.394;2023-12-07T08:22:12;24.20;33.00
43561;DHT22;32305;46.410;17.394;2023-12-07T08:24:39;24.20;33.40
43561;DHT22;32305;46.410;17.394;2023-12-07T08:27:06;24.30;33.50
43561;DHT22;32305;46.410;17.394;2023-12-07T08:29:34;24.30;33.80
43561;DHT22;32305;46.410;17.394;2023-12-07T08:32:01;24.30;33.50
43561;DHT22;32305;46.410;17.394;2023-12-07T08:34:28;24.40;33.40
43561;DHT22;32305;46.410;17.394;2023-12-07T08:36:56;24.40;33.30
43561;DHT22;32305;46.410;17.394;2023-12-07T08:39:24;24.40;33.20
43561;DHT22;32305;46.410;17.394;2023-12-07T08:41:52;24.50;33.30
43561;DHT22;32305;46.410;17.394;2023-12-07T08:44:19;24.50;33.00
43561;DHT22;32305;46.410;17.394;2023-12-07T08:46:46;24.50;32.80
43561;DHT22;32305;46.410;17.394;2023-12-07T08:49:13;24.50;33.20
43561;DHT22;32305;46.410;17.394;2023-12-07T08:51:40;24.50;33.30
43561;DHT22;32305;46.410;17.394;2023-12-07T08:54:27;24.60;33.10
43561;DHT22;32305;46.410;17.394;2023-12-07T08:56:55;24.60;33.10
43561;DHT22;32305;46.410;17.394;2023-12-07T08:59:22;24.60;32.90
43561;DHT22;32305;46.410;17.394;2023-12-07T09:01:50;24.70;32.90
43561;DHT22;32305;46.410;17.394;2023-12-07T09:04:17;24.70;33.00
43561;DHT22;32305;46.410;17.394;2023-12-07T09:06:44;24.70;33.00
43561;DHT22;32305;46.410;17.394;2023-12-07T09:09:11;24.80;32.90
43561;DHT22;32305;46.410;17.394;2023-12-07T09:11:38;24.80;33.00
43561;DHT22;32305;46.410;17.394;2023-12-07T09:14:05;24.90;32.90
43561;DHT22;32305;46.410;17.394;2023-12-07T09:16:35;24.90;33.00
43561;DHT22;32305;46.410;17.394;2023-12-07T09:19:09;25.00;32.80
43561;DHT22;32305;46.410;17.394;2023-12-07T09:21:36;25.00;32.50
43561;DHT22;32305;46.410;17.394;2023-12-07T09:24:03;25.10;32.50
43561;DHT22;32305;46.410;17.394;2023-12-07T09:26:29;25.10;32.30
43561;DHT22;32305;46.410;17.394;2023-12-07T09:28:56;25.10;32.40
43561;DHT22;32305;46.410;17.394;2023-12-07T09:31:24;25.20;32.40
43561;DHT22;32305;46.410;17.394;2023-12-07T09:33:51;25.20;32.40
43561;DHT22;32305;46.410;17.394;2023-12-07T09:36:20;25.30;32.30
43561;DHT22;32305;46.410;17.394;2023-12-07T09:38:51;25.30;32.30
43561;DHT22;32305;46.410;17.394;2023-12-07T09:41:17;25.40;32.40
43561;DHT22;32305;46.410;17.394;2023-12-07T09:43:45;25.40;32.30
43561;DHT22;32305;46.410;17.394;2023-12-07T09:46:12;25.50;32.20
43561;DHT22;32305;46.410;17.394;2023-12-07T09:48:41;25.50;32.10
43561;DHT22;32305;46.410;17.394;2023-12-07T09:51:09;25.60;32.00
43561;DHT22;32305;46.410;17.394;2023-12-07T09:53:38;25.60;31.90
43561;DHT22;32305;46.410;17.394;2023-12-07T09:56:06;25.70;31.90
43561;DHT22;32305;46.410;17.394;2023-12-07T09:58:33;25.70;31.90
43561;DHT22;32305;46.410;17.394;2023-12-07T10:01:07;25.70;31.90
43561;DHT22;32305;46.410;17.394;2023-12-07T10:03:34;25.70;32.50
43561;DHT22;32305;46.410;17.394;2023-12-07T10:06:01;25.70;31.90
43561;DHT22;32305;46.410;17.394;2023-12-07T10:08:30;25.70;31.90
43561;DHT22;32305;46.410;17.394;2023-12-07T10:11:04;25.70;31.80
43561;DHT22;32305;46.410;17.394;2023-12-07T10:13:32;25.70;31.80
43561;DHT22;32305;46.410;17.394;2023-12-07T10:16:06;25.80;31.70
43561;DHT22;32305;46.410;17.394;2023-12-07T10:18:35;25.90;31.70
43561;DHT22;32305;46.410;17.394;2023-12-07T10:21:04;25.90;31.50
43561;DHT22;32305;46.410;17.394;2023-12-07T10:23:31;25.90;31.50
43561;DHT22;32305;46.410;17.394;2023-12-07T10:25:58;26.00;31.50
43561;DHT22;32305;46.410;17.394;2023-12-07T10:28:27;26.00;31.50
43561;DHT22;32305;46.410;17.394;2023-12-07T10:30:54;26.10;31.50
43561;DHT22;32305;46.410;17.394;2023-12-07T10:33:21;26.10;31.40
43561;DHT22;32305;46.410;17.394;2023-12-07T10:35:48;26.10;31.40
43561;DHT22;32305;46.410;17.394;2023-12-07T10:38:16;26.00;31.40
43561;DHT22;32305;46.410;17.394;2023-12-07T10:40:45;26.10;31.50
43561;DHT22;32305;46.410;17.394;2023-12-07T10:43:13;26.10;31.40
43561;DHT22;32305;46.410;17.394;2023-12-07T10:45:42;26.10;31.30
43561;DHT22;32305;46.410;17.394;2023-12-07T10:48:11;26.00;31.20
43561;DHT22;32305;46.410;17.394;2023-12-07T10:50:41;26.10;31.20
43561;DHT22;32305;46.410;17.394;2023-12-07T10:53:15;26.10;31.20
43561;DHT22;32305;46.410;17.394;2023-12-07T10:55:55;26.10;31.20
43561;DHT22;32305;46.410;17.394;2023-12-07T10:58:23;26.10;31.10
43561;DHT22;32305;46.410;17.394;2023-12-07T11:00:52;26.10;31.00
43561;DHT22;32305;46.410;17.394;2023-12-07T11:03:20;26.10;30.90
43561;DHT22;32305;46.410;17.394;2023-12-07T11:05:51;26.10;30.80
43561;DHT22;32305;46.410;17.394;2023-12-07T11:08:28;26.10;30.90
43561;DHT22;32305;46.410;17.394;2023-12-07T11:11:04;26.10;30.90
43561;DHT22;32305;46.410;17.394;2023-12-07T11:13:35;26.10;30.90
43561;DHT22;32305;46.410;17.394;2023-12-07T11:16:02;26.10;31.00
43561;DHT22;32305;46.410;17.394;2023-12-07T11:18:29;26.10;31.00
43561;DHT22;32305;46.410;17.394;2023-12-07T11:20:57;26.10;30.90
43561;DHT22;32305;46.410;17.394;2023-12-07T11:23:26;26.10;30.90
43561;DHT22;32305;46.410;17.394;2023-12-07T11:25:53;26.10;31.30
43561;DHT22;32305;46.410;17.394;2023-12-07T11:28:35;26.10;30.90
43561;DHT22;32305;46.410;17.394;2023-12-07T11:31:03;26.10;30.90
43561;DHT22;32305;46.410;17.394;2023-12-07T11:33:30;26.10;30.90
43561;DHT22;32305;46.410;17.394;2023-12-07T11:36:06;26.10;31.00
43561;DHT22;32305;46.410;17.394;2023-12-07T11:38:33;26.10;31.00
43561;DHT22;32305;46.410;17.394;2023-12-07T11:41:01;26.10;31.20
43561;DHT22;32305;46.410;17.394;2023-12-07T11:43:36;26.10;31.40
43561;DHT22;32305;46.410;17.394;2023-12-07T11:46:07;26.10;31.40
43561;DHT22;32305;46.410;17.394;2023-12-07T11:48:34;26.10;31.30
43561;DHT22;32305;46.410;17.394;2023-12-07T11:51:05;26.10;31.30
43561;DHT22;32305;46.410;17.394;2023-12-07T11:53:37;26.10;31.20
43561;DHT22;32305;46.410;17.394;2023-12-07T11:56:05;26.10;31.00
43561;DHT22;32305;46.410;17.394;2023-12-07T11:58:33;26.10;31.00
43561;DHT22;32305;46.410;17.394;2023-12-07T12:01:05;26.10;31.50
43561;DHT22;32305;46.410;17.394;2023-12-07T12:03:32;26.10;30.90
43561;DHT22;32305;46.410;17.394;2023-12-07T12:05:59;26.20;30.90
43561;DHT22;32305;46.410;17.394;2023-12-07T12:08:26;26.20;30.80
43561;DHT22;32305;46.410;17.394;2023-12-07T12:10:54;26.20;30.80
43561;DHT22;32305;46.410;17.394;2023-12-07T12:13:28;26.20;31.00
43561;DHT22;32305;46.410;17.394;2023-12-07T12:15:56;26.20;31.00
43561;DHT22;32305;46.410;17.394;2023-12-07T12:18:29;26.20;31.00
43561;DHT22;32305;46.410;17.394;2023-12-07T12:20:56;26.20;31.00
43561;DHT22;32305;46.410;17.394;2023-12-07T12:23:26;26.20;31.10
43561;DHT22;32305;46.410;17.394;2023-12-07T12:25:56;26.20;31.00
43561;DHT22;32305;46.410;17.394;2023-12-07T12:28:23;26.10;31.00
43561;DHT22;32305;46.410;17.394;2023-12-07T12:30:51;26.10;30.90
43561;DHT22;32305;46.410;17.394;2023-12-07T12:33:19;26.10;31.00
43561;DHT22;32305;46.410;17.394;2023-12-07T12:35:46;26.10;31.10
43561;DHT22;32305;46.410;17.394;2023-12-07T12:38:13;26.10;31.10
43561;DHT22;32305;46.410;17.394;2023-12-07T12:40:53;26.10;31.00
43561;DHT22;32305;46.410;17.394;2023-12-07T12:43:21;26.10;31.00
43561;DHT22;32305;46.410;17.394;2023-12-07T12:45:49;26.10;30.90
43561;DHT22;32305;46.410;17.394;2023-12-07T12:48:32;26.10;30.90
43561;DHT22;32305;46.410;17.394;2023-12-07T12:51:07;26.10;30.90
43561;DHT22;32305;46.410;17.394;2023-12-07T12:53:34;26.00;30.80
43561;DHT22;32305;46.410;17.394;2023-12-07T12:56:03;26.00;30.90
43561;DHT22;32305;46.410;17.394;2023-12-07T12:58:30;26.00;30.90
43561;DHT22;32305;46.410;17.394;2023-12-07T13:00:57;26.10;31.00
43561;DHT22;32305;46.410;17.394;2023-12-07T13:03:25;26.00;30.90
43561;DHT22;32305;46.410;17.394;2023-12-07T13:05:52;26.00;30.80
43561;DHT22;32305;46.410;17.394;2023-12-07T13:08:20;26.00;30.80
43561;DHT22;32305;46.410;17.394;2023-12-07T13:10:48;26.10;30.90
43561;DHT22;32305;46.410;17.394;2023-12-07T13:13:15;26.00;31.00
43561;DHT22;32305;46.410;17.394;2023-12-07T13:15:42;26.10;31.00
43561;DHT22;32305;46.410;17.394;2023-12-07T13:18:09;26.10;30.80
43561;DHT22;32305;46.410;17.394;2023-12-07T13:20:37;26.10;30.90
43561;DHT22;32305;46.410;17.394;2023-12-07T13:23:06;26.10;31.00
43561;DHT22;32305;46.410;17.394;2023-12-07T13:25:33;26.00;30.90
43561;DHT22;32305;46.410;17.394;2023-12-07T13:28:00;26.00;30.80
43561;DHT22;32305;46.410;17.394;2023-12-07T13:30:27;25.90;30.80
43561;DHT22;32305;46.410;17.394;2023-12-07T13:32:56;26.00;30.80
43561;DHT22;32305;46.410;17.394;2023-12-07T13:35:23;25.90;30.80
43561;DHT22;32305;46.410;17.394;2023-12-07T13:37:51;25.90;30.70
43561;DHT22;32305;46.410;17.394;2023-12-07T13:40:18;25.90;30.60
43561;DHT22;32305;46.410;17.394;2023-12-07T13:42:45;25.90;30.70
43561;DHT22;32305;46.410;17.394;2023-12-07T13:45:12;25.90;30.60
43561;DHT22;32305;46.410;17.394;2023-12-07T13:47:40;25.90;31.00
43561;DHT22;32305;46.410;17.394;2023-12-07T13:50:07;25.90;30.40
43561;DHT22;32305;46.410;17.394;2023-12-07T13:52:35;25.90;30.40
43561;DHT22;32305;46.410;17.394;2023-12-07T13:55:02;25.90;30.60
43561;DHT22;32305;46.410;17.394;2023-12-07T13:57:29;25.80;31.10
43561;DHT22;32305;46.410;17.394;2023-12-07T13:59:56;25.80;30.50
43561;DHT22;32305;46.410;17.394;2023-12-07T14:02:24;25.80;30.40
43561;DHT22;32305;46.410;17.394;2023-12-07T14:04:52;25.80;30.40
43561;DHT22;32305;46.410;17.394;2023-12-07T14:07:20;25.80;30.40
43561;DHT22;32305;46.410;17.394;2023-12-07T14:09:48;25.80;30.30
43561;DHT22;32305;46.410;17.394;2023-12-07T14:12:24;25.70;30.40
43561;DHT22;32305;46.410;17.394;2023-12-07T14:14:52;25.70;30.50
43561;DHT22;32305;46.410;17.394;2023-12-07T14:17:22;25.70;30.50
43561;DHT22;32305;46.410;17.394;2023-12-07T14:20:04;25.60;30.70
43561;DHT22;32305;46.410;17.394;2023-12-07T14:22:51;25.50;30.60
43561;DHT22;32305;46.410;17.394;2023-12-07T14:25:18;25.50;31.00
43561;DHT22;32305;46.410;17.394;2023-12-07T14:27:45;25.40;30.90
43561;DHT22;32305;46.410;17.394;2023-12-07T14:30:13;25.40;30.90
43561;DHT22;32305;46.410;17.394;2023-12-07T14:32:43;25.30;31.00
43561;DHT22;32305;46.410;17.394;2023-12-07T14:35:19;25.30;31.00
43561;DHT22;32305;46.410;17.394;2023-12-07T14:37:47;25.20;30.90
43561;DHT22;32305;46.410;17.394;2023-12-07T14:40:14;25.10;31.10
43561;DHT22;32305;46.410;17.394;2023-12-07T14:42:44;25.10;31.20
43561;DHT22;32305;46.410;17.394;2023-12-07T14:45:12;25.10;31.50
43561;DHT22;32305;46.410;17.394;2023-12-07T14:47:42;25.10;31.80
43561;DHT22;32305;46.410;17.394;2023-12-07T14:50:09;25.00;31.60
43561;DHT22;32305;46.410;17.394;2023-12-07T14:52:36;25.00;31.60
43561;DHT22;32305;46.410;17.394;2023-12-07T14:55:04;24.90;31.60
43561;DHT22;32305;46.410;17.394;2023-12-07T14:57:32;24.90;31.70
43561;DHT22;32305;46.410;17.394;2023-12-07T14:59:59;24.80;31.80
43561;DHT22;32305;46.410;17.394;2023-12-07T15:02:26;24.80;32.00
43561;DHT22;32305;46.410;17.394;2023-12-07T15:04:54;24.80;32.10
43561;DHT22;32305;46.410;17.394;2023-12-07T15:07:21;24.70;32.10
43561;DHT22;32305;46.410;17.394;2023-12-07T15:09:48;24.70;32.10
43561;DHT22;32305;46.410;17.394;2023-12-07T15:12:16;24.70;32.10
43561;DHT22;32305;46.410;17.394;2023-12-07T15:14:45;24.60;32.20
43561;DHT22;32305;46.410;17.394;2023-12-07T15:17:13;24.60;32.40
43561;DHT22;32305;46.410;17.394;2023-12-07T15:19:40;24.60;32.50